Time;durP1;ratioP1;P1;durP2;ratioP2;P2;SDS_P1;SDS_P2;PMS_P1;PMS_P2;Temp;Humidity;BMP_temperature;BMP_pressure;BME280_temperature;BME280_humidity;BME280_pressure;Samples;Min_cycle;Max_cycle;Signal;HPM_P1;HPM_P2
2022/04/14 07:33:21;;;;;;;8.80;4.30;;;15.50;99.90;;;;;;5296961;27;20721;-64
2022/04/14 07:35:52;;;;;;;7.93;4.18;;;16.50;99.90;;;;;;5292703;27;20040;-61
2022/04/14 07:38:23;;;;;;;8.23;4.32;;;16.70;99.90;;;;;;5291189;27;20088;-63
2022/04/14 07:40:56;;;;;;;6.53;4.07;;;17.20;99.90;;;;;;5123473;27;20065;-60
2022/04/14 07:43:28;;;;;;;8.95;3.92;;;17.30;99.90;;;;;;5268082;27;20037;-62
2022/04/14 07:46:00;;;;;;;5.85;3.50;;;;;;;;;;5274135;28;20077;-60
2022/04/14 07:48:30;;;;;;;6.85;3.95;;;17.20;99.90;;;;;;5265931;28;20039;-64
2022/04/14 07:51:02;;;;;;;5.22;3.63;;;17.20;99.90;;;;;;5268263;28;20032;-64
2022/04/14 07:53:33;;;;;;;6.78;3.67;;;17.20;99.90;;;;;;5271160;28;20157;-62
2022/04/14 07:56:05;;;;;;;8.40;4.03;;;17.20;99.90;;;;;;5273804;28;20111;-61
2022/04/14 07:58:38;;;;;;;10.63;3.63;;;17.20;99.90;;;;;;5275389;28;20035;-62
2022/04/14 08:01:09;;;;;;;6.22;3.67;;;17.20;99.90;;;;;;5269855;28;20032;-64
2022/04/14 08:03:41;;;;;;;8.13;3.63;;;17.30;99.90;;;;;;5270793;28;20024;-59
2022/04/14 08:06:13;;;;;;;7.45;3.65;;;17.30;99.90;;;;;;5275783;28;20035;-60
2022/04/14 08:08:44;;;;;;;11.38;4.13;;;17.70;99.90;;;;;;5276118;28;20065;-66
2022/04/14 08:11:14;;;;;;;6.22;3.42;;;17.60;99.90;;;;;;5273045;28;20020;-65
2022/04/14 08:13:45;;;;;;;7.15;3.90;;;17.40;99.90;;;;;;5277834;28;20038;-65
2022/04/14 08:16:16;;;;;;;6.47;3.80;;;17.50;99.90;;;;;;5273569;28;20080;-65
2022/04/14 08:18:47;;;;;;;6.90;3.75;;;17.60;99.90;;;;;;5269412;28;20033;-64
2022/04/14 08:21:19;;;;;;;6.95;3.90;;;17.60;99.90;;;;;;5275195;28;20019;-65
2022/04/14 08:23:52;;;;;;;7.40;3.97;;;17.60;99.90;;;;;;5274821;28;20055;-64
2022/04/14 08:26:23;;;;;;;7.38;3.50;;;17.60;99.90;;;;;;5273547;28;20592;-65
2022/04/14 08:28:55;;;;;;;5.57;3.60;;;17.70;99.90;;;;;;5270174;28;20032;-65
2022/04/14 08:31:27;;;;;;;9.15;3.88;;;17.60;99.90;;;;;;5273952;28;20084;-66
2022/04/14 08:33:57;;;;;;;5.07;3.30;;;17.70;99.90;;;;;;5275720;28;20508;-66
2022/04/14 08:36:29;;;;;;;6.25;3.90;;;17.50;99.90;;;;;;5273144;28;20032;-65
2022/04/14 08:39:00;;;;;;;6.38;3.55;;;17.50;99.90;;;;;;5267404;28;20028;-64
2022/04/14 08:41:33;;;;;;;6.25;3.78;;;;;;;;;;5272654;28;20032;-62
2022/04/14 08:44:11;;;;;;;5.30;3.38;;;17.50;99.90;;;;;;5261507;28;20050;-63
2022/04/14 08:46:42;;;;;;;5.65;3.50;;;17.40;99.90;;;;;;5255195;28;20025;-64
2022/04/14 08:49:16;;;;;;;4.90;3.10;;;17.50;99.90;;;;;;5255825;28;20033;-65
2022/04/14 08:51:48;;;;;;;7.25;3.72;;;17.50;99.90;;;;;;5258904;28;20127;-64
2022/04/14 08:54:20;;;;;;;8.25;3.50;;;17.60;99.90;;;;;;5254836;28;20031;-64
2022/04/14 08:56:51;;;;;;;7.60;3.40;;;17.60;99.90;;;;;;5257987;28;20057;-64
2022/04/14 08:59:23;;;;;;;5.38;3.03;;;17.50;99.90;;;;;;5255821;28;20063;-63
2022/04/14 09:01:56;;;;;;;7.28;3.05;;;17.70;99.90;;;;;;5258083;28;20048;-63
2022/04/14 09:04:27;;;;;;;8.90;3.67;;;17.70;99.90;;;;;;5261079;28;20422;-65
2022/04/14 09:06:57;;;;;;;7.72;3.40;;;17.60;99.90;;;;;;5258032;28;20032;-61
2022/04/14 09:09:28;;;;;;;10.90;4.10;;;17.70;99.90;;;;;;5254935;28;20157;-62
2022/04/14 09:12:00;;;;;;;16.02;3.90;;;17.70;99.90;;;;;;5259352;28;20105;-62
2022/04/14 09:14:34;;;;;;;11.50;4.55;;;17.60;99.90;;;;;;5253167;28;20028;-61
2022/04/14 09:17:05;;;;;;;9.07;4.18;;;17.50;99.90;;;;;;5259253;28;20028;-63
2022/04/14 09:19:37;;;;;;;10.57;4.00;;;17.50;99.90;;;;;;5254896;28;20024;-61
2022/04/14 09:22:13;;;;;;;10.02;4.15;;;17.50;99.90;;;;;;5251181;28;20021;-61
2022/04/14 09:24:48;;;;;;;9.20;4.05;;;17.90;99.90;;;;;;5253535;28;20399;-62
2022/04/14 09:27:32;;;;;;;8.52;3.80;;;17.90;99.90;;;;;;5253357;28;20040;-63
2022/04/14 09:30:06;;;;;;;9.10;3.92;;;18.10;99.90;;;;;;5255640;28;20016;-61
2022/04/14 09:32:45;;;;;;;9.45;4.30;;;18.10;99.90;;;;;;5254389;28;20150;-61
2022/04/14 09:35:20;;;;;;;10.25;4.20;;;17.80;99.90;;;;;;5256199;28;20475;-66
2022/04/14 09:38:02;;;;;;;11.27;3.90;;;17.60;99.90;;;;;;5256823;28;20036;-61
2022/04/14 09:40:33;;;;;;;8.68;3.72;;;17.50;99.90;;;;;;5254305;28;20478;-62
2022/04/14 09:43:05;;;;;;;11.15;3.40;;;17.50;99.90;;;;;;5259426;28;20533;-64
2022/04/14 09:45:36;;;;;;;7.47;3.67;;;17.60;99.90;;;;;;5257433;28;20361;-64
2022/04/14 09:48:12;;;;;;;9.77;4.53;;;17.30;99.90;;;;;;5251187;28;20016;-64
2022/04/14 09:50:47;;;;;;;10.30;4.10;;;17.40;99.90;;;;;;5252975;28;20030;-62
2022/04/14 09:53:22;;;;;;;9.82;4.40;;;17.50;99.90;;;;;;5255623;28;20064;-64
2022/04/14 09:55:53;;;;;;;14.05;4.20;;;17.40;99.90;;;;;;5254036;28;20036;-63
2022/04/14 09:58:26;;;;;;;11.85;4.20;;;17.30;99.90;;;;;;5259071;28;20358;-61
2022/04/14 10:00:58;;;;;;;9.75;4.03;;;17.20;99.90;;;;;;5260650;28;20028;-63
2022/04/14 10:03:30;;;;;;;11.93;3.53;;;17.30;99.90;;;;;;5253495;28;20033;-64
2022/04/14 10:06:07;;;;;;;9.00;3.50;;;17.20;99.90;;;;;;5258425;28;20028;-64
2022/04/14 10:08:50;;;;;;;7.65;2.97;;;17.20;99.90;;;;;;5254297;28;20491;-62
2022/04/14 10:11:36;;;;;;;11.95;3.85;;;17.20;99.90;;;;;;5256564;28;20089;-61
2022/04/14 10:14:15;;;;;;;7.25;3.85;;;17.20;99.90;;;;;;5247505;28;20568;-62
2022/04/14 10:16:47;;;;;;;9.38;3.63;;;17.10;99.90;;;;;;5251003;28;20329;-63
2022/04/14 10:19:21;;;;;;;8.25;3.17;;;17.10;99.90;;;;;;5259930;28;20059;-61
2022/04/14 10:21:53;;;;;;;11.23;3.72;;;17.10;99.90;;;;;;5258639;28;20024;-64
2022/04/14 10:24:26;;;;;;;9.00;3.50;;;17.00;99.90;;;;;;5249706;28;20119;-62
2022/04/14 10:26:58;;;;;;;6.53;2.83;;;17.00;99.90;;;;;;5257543;28;20035;-61
2022/04/14 10:29:31;;;;;;;7.15;3.28;;;17.00;99.90;;;;;;5255776;28;20029;-62
2022/04/14 10:32:02;;;;;;;6.20;3.35;;;17.00;99.90;;;;;;5253035;28;20058;-61
2022/04/14 10:34:34;;;;;;;8.95;3.08;;;17.00;99.90;;;;;;5255281;28;20036;-62
2022/04/14 10:37:13;;;;;;;4.28;2.90;;;17.00;99.90;;;;;;5256318;28;20082;-63
2022/04/14 10:39:48;;;;;;;6.85;3.30;;;16.90;99.90;;;;;;5258203;28;20100;-61
2022/04/14 10:42:25;;;;;;;6.97;2.90;;;16.90;99.90;;;;;;5251465;28;20451;-63
2022/04/14 10:44:56;;;;;;;7.78;2.95;;;16.90;99.90;;;;;;5251282;28;20032;-63
2022/04/14 10:47:36;;;;;;;5.70;2.88;;;16.90;99.90;;;;;;5251300;28;20055;-63
2022/04/14 10:50:23;;;;;;;7.15;2.95;;;16.90;99.90;;;;;;5253625;28;20066;-64
2022/04/14 10:53:19;;;;;;;5.38;2.58;;;16.90;99.90;;;;;;5257850;28;20040;-61
2022/04/14 10:55:50;;;;;;;7.82;2.67;;;17.80;99.90;;;;;;5249318;28;20689;-62
2022/04/14 10:58:36;;;;;;;3.65;2.17;;;17.80;99.90;;;;;;5254254;28;20067;-61
2022/04/14 11:01:12;;;;;;;5.55;2.58;;;17.90;99.90;;;;;;5253501;28;20364;-59
2022/04/14 11:03:55;;;;;;;5.40;2.20;;;17.90;99.90;;;;;;5258970;28;20095;-60
2022/04/14 11:06:51;;;;;;;5.25;2.67;;;18.00;99.90;;;;;;5214034;28;20171;-62
2022/04/14 11:12:20;;;;;;;7.50;2.45;;;17.50;99.90;;;;;;5259283;28;20039;-61
2022/04/14 11:15:01;;;;;;;3.60;1.92;;;17.40;99.90;;;;;;5255921;28;20631;-62
2022/04/14 11:17:37;;;;;;;8.95;3.20;;;17.40;99.90;;;;;;5253581;28;20039;-63
2022/04/14 11:20:51;;;;;;;6.03;2.42;;;17.30;99.90;;;;;;5252161;28;20433;-63
2022/04/14 11:23:26;;;;;;;4.53;2.25;;;17.30;99.90;;;;;;5257240;28;20039;-63
2022/04/14 11:26:09;;;;;;;6.72;2.90;;;17.40;99.90;;;;;;5256532;28;20029;-63
2022/04/14 11:28:43;;;;;;;6.88;2.67;;;17.40;99.90;;;;;;5253145;28;20027;-63
2022/04/14 11:31:21;;;;;;;8.98;2.40;;;17.30;99.90;;;;;;5254686;28;20052;-60
2022/04/14 11:33:55;;;;;;;4.15;2.03;;;17.30;99.90;;;;;;5253712;28;21188;-60
2022/04/14 11:36:39;;;;;;;5.15;2.38;;;17.30;99.90;;;;;;5252736;28;20566;-63
2022/04/14 11:39:20;;;;;;;3.88;1.90;;;17.30;99.90;;;;;;5247855;28;20024;-61
2022/04/14 11:41:56;;;;;;;5.20;2.15;;;17.30;99.90;;;;;;5250648;28;20560;-62
2022/04/14 11:44:32;;;;;;;4.80;2.40;;;17.30;99.90;;;;;;5255729;28;20066;-63
2022/04/14 11:47:05;;;;;;;3.78;1.77;;;17.30;99.90;;;;;;5255798;28;20031;-63
2022/04/14 11:49:36;;;;;;;3.55;1.70;;;17.30;99.90;;;;;;5256314;28;20036;-63
2022/04/14 11:52:07;;;;;;;5.03;2.03;;;17.40;99.90;;;;;;5250145;28;20391;-63
2022/04/14 11:54:38;;;;;;;5.85;1.77;;;17.30;99.90;;;;;;5254206;28;20020;-63
2022/04/14 11:57:11;;;;;;;3.22;1.70;;;17.30;99.90;;;;;;5249769;28;20056;-59
2022/04/14 11:59:47;;;;;;;6.80;2.00;;;17.50;99.90;;;;;;5248030;28;20028;-60
2022/04/14 12:02:23;;;;;;;12.75;2.17;;;17.70;99.90;;;;;;5251031;28;20029;-60
2022/04/14 12:07:36;;;;;;;;;;;20.90;95.30;;;;;;5097130;27;20431;-68
2022/04/14 12:10:09;;;;;;;3.83;1.70;;;19.40;99.90;;;;;;5198239;28;20003;-69
2022/04/14 12:12:39;;;;;;;2.47;1.75;;;19.10;99.90;;;;;;5206842;28;20037;-70
2022/04/14 12:15:10;;;;;;;4.70;1.60;;;19.00;99.90;;;;;;5197285;27;20033;-69
2022/04/14 12:17:41;;;;;;;5.70;2.58;;;18.70;99.90;;;;;;5184756;28;20044;-68
2022/04/14 12:20:12;;;;;;;3.00;1.75;;;18.50;99.90;;;;;;5219045;28;20120;-66
2022/04/14 12:22:43;;;;;;;3.75;1.77;;;18.30;99.90;;;;;;5220215;28;20074;-67
2022/04/14 12:25:14;;;;;;;4.35;1.85;;;17.90;99.90;;;;;;5220051;28;20029;-68
2022/04/14 12:27:48;;;;;;;4.53;1.88;;;17.80;99.90;;;;;;5220401;28;20492;-68
2022/04/14 12:30:22;;;;;;;4.75;2.00;;;17.70;99.90;;;;;;5220153;28;20159;-67
2022/04/14 12:33:04;;;;;;;3.28;1.80;;;17.50;99.90;;;;;;5209746;28;20083;-66
2022/04/14 12:35:37;;;;;;;4.55;1.70;;;17.60;99.90;;;;;;5207072;28;20038;-66
2022/04/14 12:38:19;;;;;;;3.50;1.83;;;17.50;99.90;;;;;;5199455;28;20025;-67
2022/04/14 12:40:59;;;;;;;4.43;1.88;;;17.60;99.90;;;;;;5198184;28;20038;-68
2022/04/14 12:43:44;;;;;;;3.90;1.92;;;17.50;99.90;;;;;;5199335;28;20029;-67
2022/04/14 12:46:41;;;;;;;4.85;1.73;;;17.60;99.90;;;;;;5199134;28;20061;-69
2022/04/14 12:49:14;;;;;;;4.25;2.08;;;18.30;99.90;;;;;;5194681;28;20033;-69
2022/04/14 12:51:57;;;;;;;2.95;1.85;;;18.30;99.90;;;;;;5199158;28;20156;-68
2022/04/14 12:54:28;;;;;;;3.55;1.73;;;18.30;99.90;;;;;;5199186;28;20149;-68
2022/04/14 12:57:02;;;;;;;6.25;1.80;;;18.30;99.90;;;;;;5199325;28;20100;-67
2022/04/14 12:59:35;;;;;;;2.97;1.63;;;18.30;99.90;;;;;;5198994;28;20022;-67
2022/04/14 13:02:09;;;;;;;2.67;1.50;;;18.40;99.90;;;;;;5199163;28;20102;-66
2022/04/14 13:04:42;;;;;;;2.40;1.33;;;18.40;99.90;;;;;;5198961;28;20029;-69
2022/04/14 13:07:17;;;;;;;2.85;1.65;;;18.20;99.90;;;;;;5198656;28;20058;-68
2022/04/14 13:09:59;;;;;;;3.65;1.55;;;17.60;99.90;;;;;;5198733;28;20064;-68
2022/04/14 13:12:40;;;;;;;3.90;1.60;;;17.60;99.90;;;;;;5198638;28;20504;-68
2022/04/14 13:15:15;;;;;;;2.97;1.63;;;17.40;99.90;;;;;;5198989;28;20025;-68
2022/04/14 13:17:46;;;;;;;5.68;1.75;;;17.40;99.90;;;;;;5192106;28;20105;-67
2022/04/14 13:20:23;;;;;;;2.38;1.65;;;17.40;99.90;;;;;;5184655;28;20018;-67
2022/04/14 13:22:54;;;;;;;3.83;1.83;;;18.20;99.90;;;;;;5185371;28;20037;-67
2022/04/14 13:25:25;;;;;;;3.22;1.48;;;17.70;99.90;;;;;;5185145;28;20033;-67
2022/04/14 13:27:56;;;;;;;5.82;1.90;;;17.50;99.90;;;;;;5185596;28;20034;-68
2022/04/14 13:30:27;;;;;;;6.65;1.98;;;17.50;99.90;;;;;;5184826;28;20493;-66
2022/04/14 13:32:58;;;;;;;3.85;1.50;;;17.40;99.90;;;;;;5185234;28;20032;-69
2022/04/14 13:35:29;;;;;;;5.18;1.40;;;17.90;99.90;;;;;;5183605;28;20081;-69
2022/04/14 13:38:01;;;;;;;4.03;1.42;;;17.90;99.90;;;;;;5185029;28;20123;-68
2022/04/14 13:40:32;;;;;;;2.35;1.50;;;17.60;99.90;;;;;;5184464;28;20029;-68
2022/04/14 13:43:02;;;;;;;4.40;1.65;;;17.90;99.90;;;;;;5184569;28;20724;-68
2022/04/14 13:58:21;;;;;;;;;;;17.70;99.90;;;;;;5298015;27;20443;-58
2022/04/14 14:00:53;;;;;;;4.82;1.65;;;17.80;99.90;;;;;;5267617;28;19969;-58
2022/04/14 14:03:24;;;;;;;2.40;1.20;;;18.00;99.90;;;;;;5265940;28;20110;-59
2022/04/14 14:05:54;;;;;;;3.60;1.40;;;17.80;99.90;;;;;;5274495;28;20120;-58
2022/04/14 14:08:26;;;;;;;3.15;1.55;;;17.40;99.90;;;;;;5280542;28;20124;-58
2022/04/14 14:10:57;;;;;;;2.38;1.38;;;17.30;99.90;;;;;;5280897;28;20062;-64
2022/04/14 14:13:29;;;;;;;4.20;1.80;;;17.30;99.90;;;;;;5286089;28;20051;-60
2022/04/14 14:16:00;;;;;;;4.10;1.60;;;17.20;99.90;;;;;;5286805;28;20081;-60
2022/04/14 14:18:31;;;;;;;2.65;1.58;;;17.10;99.90;;;;;;5286773;28;20091;-60
2022/04/14 14:21:02;;;;;;;3.35;1.65;;;17.10;99.90;;;;;;5286726;28;20032;-57
2022/04/14 14:23:33;;;;;;;4.22;1.85;;;17.00;99.90;;;;;;5286148;28;20047;-58
2022/04/14 14:26:04;;;;;;;2.85;1.38;;;17.00;99.90;;;;;;5286702;28;20448;-57
2022/04/14 14:28:35;;;;;;;3.78;1.52;;;17.00;99.90;;;;;;5286693;28;20032;-56
2022/04/14 14:31:07;;;;;;;2.10;1.35;;;17.00;99.90;;;;;;5286797;28;20016;-55
2022/04/14 14:33:38;;;;;;;3.78;1.35;;;17.00;99.90;;;;;;5286507;28;20032;-56
2022/04/14 14:36:10;;;;;;;6.72;1.25;;;17.00;99.90;;;;;;5286454;28;20102;-54
2022/04/14 14:38:41;;;;;;;9.80;1.88;;;17.00;99.90;;;;;;5285777;28;20024;-57
2022/04/14 14:41:12;;;;;;;3.42;1.50;;;17.00;99.90;;;;;;5286302;28;20383;-60
2022/04/14 14:43:43;;;;;;;6.63;1.40;;;16.90;99.90;;;;;;5286251;28;20020;-57
2022/04/14 14:46:17;;;;;;;5.68;1.73;;;16.90;99.90;;;;;;5286322;28;20487;-57
2022/04/14 14:48:49;;;;;;;4.72;1.80;;;16.90;99.90;;;;;;5285977;28;20016;-60
2022/04/14 14:51:21;;;;;;;4.57;1.63;;;16.90;99.90;;;;;;5286148;28;20043;-55
2022/04/14 14:53:51;;;;;;;4.85;1.58;;;16.90;99.90;;;;;;5286082;28;20485;-57
2022/04/14 14:56:22;;;;;;;4.43;1.40;;;16.90;99.90;;;;;;5285769;28;20036;-60
2022/04/14 15:01:47;;;;;;;4.40;1.40;;;16.90;99.90;;;;;;5272289;28;20441;-56
2022/04/14 15:04:19;;;;;;;4.93;1.30;;;16.90;99.90;;;;;;5272006;28;20482;-54
2022/04/14 15:06:50;;;;;;;6.80;1.30;;;16.90;99.90;;;;;;5271773;28;20036;-52
2022/04/14 15:09:21;;;;;;;4.43;1.63;;;16.90;99.90;;;;;;5271675;28;20060;-59
2022/04/14 15:11:52;;;;;;;5.65;1.73;;;16.90;99.90;;;;;;5271901;28;20400;-56
2022/04/14 15:14:23;;;;;;;2.90;1.10;;;16.90;99.90;;;;;;5271689;28;20098;-58
2022/04/14 15:16:54;;;;;;;4.05;1.58;;;16.90;99.90;;;;;;5271789;28;20429;-56
2022/04/14 15:19:24;;;;;;;3.40;1.40;;;16.90;99.90;;;;;;5271295;28;20428;-54
2022/04/14 15:21:55;;;;;;;4.78;1.38;;;16.90;99.90;;;;;;5271785;28;20371;-56
2022/04/14 15:24:27;;;;;;;6.10;1.55;;;16.90;99.90;;;;;;5271583;28;20035;-54
2022/04/14 15:26:58;;;;;;;3.15;1.40;;;16.90;99.90;;;;;;5271409;28;20056;-57
2022/04/14 15:29:29;;;;;;;2.92;1.30;;;16.90;99.90;;;;;;5271200;28;20036;-59
2022/04/14 15:32:00;;;;;;;8.75;1.50;;;16.90;99.90;;;;;;5271486;28;20099;-57
2022/04/14 15:34:31;;;;;;;2.53;1.30;;;16.80;99.90;;;;;;5271335;28;20061;-57
2022/04/14 15:37:02;;;;;;;3.78;1.50;;;16.90;99.90;;;;;;5271354;28;20025;-57
2022/04/14 15:39:33;;;;;;;6.15;1.38;;;16.80;99.90;;;;;;5271189;28;20040;-60
2022/04/14 15:42:04;;;;;;;2.10;1.27;;;16.80;99.90;;;;;;5271396;28;20494;-59
2022/04/14 15:44:35;;;;;;;2.78;1.25;;;16.80;99.90;;;;;;5271309;28;20078;-59
2022/04/14 15:47:06;;;;;;;2.45;1.30;;;16.80;99.90;;;;;;5271125;28;20417;-55
2022/04/14 15:49:37;;;;;;;2.92;1.10;;;16.80;99.90;;;;;;5270737;28;20028;-53
2022/04/14 15:52:08;;;;;;;3.97;1.50;;;16.80;99.90;;;;;;5271076;28;20089;-57
2022/04/14 15:54:39;;;;;;;5.22;1.58;;;16.80;99.90;;;;;;5270948;28;20455;-58
2022/04/14 15:57:10;;;;;;;3.10;1.38;;;16.80;99.90;;;;;;5270568;28;20056;-56
2022/04/14 15:59:41;;;;;;;2.72;1.27;;;16.80;99.90;;;;;;5270540;28;20028;-59
2022/04/14 16:02:13;;;;;;;2.40;1.42;;;16.80;99.90;;;;;;5270758;28;20081;-57
2022/04/14 16:04:44;;;;;;;2.65;1.45;;;16.80;99.90;;;;;;5270824;28;20478;-55
2022/04/14 16:07:15;;;;;;;4.00;1.50;;;16.80;99.90;;;;;;5270678;28;20028;-55
2022/04/14 16:12:35;;;;;;;4.32;1.70;;;16.80;99.90;;;;;;5270958;28;20386;-58
2022/04/14 16:15:06;;;;;;;3.05;1.60;;;16.80;99.90;;;;;;5270603;28;20028;-55
2022/04/14 16:17:37;;;;;;;3.08;1.27;;;16.80;99.90;;;;;;5270359;28;20444;-58
2022/04/14 16:20:09;;;;;;;5.45;1.40;;;16.80;99.90;;;;;;5268768;28;20085;-55
2022/04/14 16:22:41;;;;;;;3.17;1.50;;;16.80;99.90;;;;;;5270379;28;20031;-56
2022/04/14 16:25:12;;;;;;;2.95;1.45;;;16.80;99.90;;;;;;5270302;28;20031;-54
2022/04/14 16:27:44;;;;;;;5.05;2.90;;;16.80;99.90;;;;;;5270135;28;20126;-55
2022/04/14 16:30:15;;;;;;;4.25;2.53;;;16.80;99.90;;;;;;5270117;28;20020;-59
2022/04/14 16:32:45;;;;;;;5.40;3.50;;;16.80;99.90;;;;;;5270195;28;20028;-56
2022/04/14 16:35:16;;;;;;;6.35;3.60;;;16.80;99.90;;;;;;5270070;28;20028;-60
2022/04/14 16:37:47;;;;;;;5.88;4.45;;;16.80;99.90;;;;;;5270228;28;20027;-57
2022/04/14 16:40:18;;;;;;;7.65;4.72;;;16.80;99.90;;;;;;5269943;28;20039;-57
2022/04/14 16:42:49;;;;;;;7.63;5.55;;;16.80;99.90;;;;;;5269924;28;20032;-57
2022/04/14 16:45:20;;;;;;;7.35;5.20;;;16.80;99.90;;;;;;5269226;28;20028;-57
2022/04/14 16:47:51;;;;;;;6.90;5.82;;;16.80;99.90;;;;;;5269662;28;20082;-55
2022/04/14 16:50:32;;;;;;;8.15;6.07;;;16.80;99.90;;;;;;5269593;28;20070;-59
2022/04/14 16:53:03;;;;;;;8.02;6.25;;;16.80;99.90;;;;;;5269595;28;20024;-55
2022/04/14 16:55:33;;;;;;;8.18;7.18;;;16.80;99.90;;;;;;5268480;28;20364;-54
2022/04/14 16:58:04;;;;;;;10.27;7.43;;;16.80;99.90;;;;;;5268300;28;20055;-58
2022/04/14 17:00:35;;;;;;;9.02;7.40;;;16.80;99.90;;;;;;5265513;28;20048;-57
2022/04/14 17:03:06;;;;;;;8.73;7.20;;;16.80;99.90;;;;;;5267584;28;20024;-56
2022/04/14 17:05:38;;;;;;;8.40;7.57;;;16.80;99.90;;;;;;5269382;28;20067;-56
2022/04/14 17:08:09;;;;;;;8.02;7.15;;;16.80;99.90;;;;;;5269459;28;20028;-58
2022/04/14 17:10:41;;;;;;;5.60;4.03;;;16.80;99.90;;;;;;5269552;28;20467;-58
2022/04/14 17:13:12;;;;;;;4.53;2.75;;;16.40;99.90;;;;;;5269706;28;20035;-59
2022/04/14 17:15:42;;;;;;;3.05;1.60;;;15.90;99.90;;;;;;5269471;28;20808;-57
2022/04/14 17:18:13;;;;;;;2.95;1.38;;;15.50;99.90;;;;;;5269423;28;20039;-58
2022/04/14 17:20:45;;;;;;;9.23;1.75;;;15.30;96.90;;;;;;5269178;28;20364;-58
2022/04/14 17:26:04;;;;;;;7.00;1.90;;;14.90;98.40;;;;;;5269552;28;20089;-52
2022/04/14 17:28:35;;;;;;;8.32;2.63;;;15.50;99.90;;;;;;5269106;28;20032;-51
2022/04/14 17:31:06;;;;;;;6.97;2.40;;;15.90;99.90;;;;;;5269274;28;20028;-51
2022/04/14 17:33:38;;;;;;;5.25;2.05;;;16.20;99.90;;;;;;5269064;28;20046;-51
2022/04/14 17:36:09;;;;;;;7.40;2.90;;;16.40;99.90;;;;;;5269135;28;20040;-55
2022/04/14 17:38:40;;;;;;;2.65;1.40;;;16.50;99.90;;;;;;5269116;28;20031;-51
2022/04/14 17:41:10;;;;;;;7.97;1.85;;;16.00;99.90;;;;;;5268797;28;20028;-50
2022/04/14 17:43:41;;;;;;;5.40;2.15;;;16.00;99.90;;;;;;5269199;28;20464;-51
2022/04/14 17:46:12;;;;;;;4.18;2.00;;;16.30;99.90;;;;;;5269067;28;20344;-49
2022/04/14 17:48:43;;;;;;;3.88;2.00;;;16.50;99.90;;;;;;5268952;28;20107;-50
2022/04/14 17:51:14;;;;;;;7.40;2.30;;;16.60;99.90;;;;;;5268950;28;20018;-50
2022/04/14 17:53:46;;;;;;;3.72;2.20;;;16.70;99.90;;;;;;5269064;28;20157;-56
2022/04/14 17:56:17;;;;;;;4.85;2.35;;;16.70;99.90;;;;;;5275263;28;20501;-49
2022/04/14 17:58:47;;;;;;;7.63;2.20;;;16.80;99.90;;;;;;5268474;28;20040;-50
2022/04/14 18:01:18;;;;;;;13.68;2.45;;;16.80;99.90;;;;;;5265322;28;20352;-52
2022/04/14 18:03:49;;;;;;;6.40;2.00;;;16.90;99.90;;;;;;5255933;28;20035;-53
2022/04/14 18:06:23;;;;;;;6.68;2.42;;;16.90;99.90;;;;;;5250306;28;20044;-51
2022/04/14 18:08:54;;;;;;;8.00;2.83;;;17.00;99.90;;;;;;5247923;28;20029;-62
2022/04/14 18:11:29;;;;;;;5.22;1.90;;;17.00;99.90;;;;;;5247814;28;20036;-52
2022/04/14 18:14:00;;;;;;;4.60;2.30;;;16.90;99.90;;;;;;5247856;28;20021;-49
2022/04/14 18:16:32;;;;;;;6.65;2.40;;;17.00;99.90;;;;;;5247771;28;20056;-49
2022/04/14 18:19:03;;;;;;;7.65;2.47;;;17.10;99.90;;;;;;5247697;28;20016;-56
2022/04/14 18:21:34;;;;;;;13.55;2.75;;;17.10;99.90;;;;;;5247790;28;20039;-49
2022/04/14 18:24:05;;;;;;;18.40;2.70;;;17.10;99.90;;;;;;5247605;28;20367;-60
2022/04/14 18:26:36;;;;;;;5.78;2.28;;;17.00;99.90;;;;;;5247296;28;20404;-59
2022/04/14 18:29:07;;;;;;;6.90;2.72;;;17.10;99.90;;;;;;5247618;28;20029;-59
2022/04/14 18:31:38;;;;;;;7.40;2.00;;;17.20;99.90;;;;;;5247859;28;20438;-51
2022/04/14 18:34:09;;;;;;;4.50;2.20;;;17.10;99.90;;;;;;5250738;28;20472;-59
2022/04/14 18:36:41;;;;;;;4.15;2.50;;;17.10;99.90;;;;;;5251615;28;20040;-59
2022/04/14 18:39:13;;;;;;;3.72;2.35;;;17.20;99.90;;;;;;5251222;28;20036;-48
2022/04/14 18:41:43;;;;;;;8.05;2.42;;;17.10;99.90;;;;;;5251560;28;20039;-48
2022/04/14 18:44:14;;;;;;;6.10;2.30;;;17.20;99.90;;;;;;5251538;28;20024;-48
2022/04/14 18:46:45;;;;;;;5.75;2.55;;;17.30;99.90;;;;;;5251319;28;20017;-48
2022/04/14 18:49:18;;;;;;;4.47;2.35;;;17.30;99.90;;;;;;5251115;28;20456;-49
2022/04/14 18:51:51;;;;;;;8.45;2.22;;;17.20;99.90;;;;;;5251350;28;20702;-53
2022/04/14 18:54:22;;;;;;;6.05;2.17;;;17.20;99.90;;;;;;5251266;28;20431;-52
2022/04/14 18:56:53;;;;;;;10.57;2.13;;;17.30;99.90;;;;;;5250904;28;20468;-48
2022/04/14 18:59:25;;;;;;;8.15;2.47;;;17.30;99.90;;;;;;5251035;28;20029;-49
2022/04/14 19:01:56;;;;;;;7.53;2.22;;;17.20;99.90;;;;;;5251146;28;20364;-49
2022/04/14 19:04:27;;;;;;;6.78;2.22;;;17.30;99.90;;;;;;5251011;28;20029;-49
2022/04/14 19:06:58;;;;;;;6.30;1.90;;;17.30;99.90;;;;;;5250935;28;20060;-50
2022/04/14 19:09:29;;;;;;;8.18;2.40;;;17.30;99.90;;;;;;5250814;28;20068;-48
2022/04/14 19:12:01;;;;;;;9.95;2.95;;;17.30;99.90;;;;;;5251034;28;20016;-49
2022/04/14 19:14:32;;;;;;;7.63;2.60;;;17.20;99.90;;;;;;5250755;28;20029;-48
2022/04/14 19:17:03;;;;;;;10.80;4.85;;;17.30;99.90;;;;;;5250838;28;20020;-48
2022/04/14 19:19:34;;;;;;;12.80;6.68;;;17.30;99.90;;;;;;5250804;28;20046;-51
2022/04/14 19:22:05;;;;;;;14.85;7.13;;;17.40;99.90;;;;;;5250781;28;20021;-51
2022/04/14 19:24:36;;;;;;;13.65;6.72;;;17.40;99.90;;;;;;5250763;28;20012;-47
2022/04/14 19:27:07;;;;;;;30.48;11.15;;;17.40;99.90;;;;;;5250486;28;20139;-49
2022/04/14 19:29:38;;;;;;;43.38;22.45;;;17.50;99.90;;;;;;5250584;28;20087;-50
2022/04/14 19:32:09;;;;;;;39.00;23.65;;;17.50;99.90;;;;;;5250476;28;20040;-60
2022/04/14 19:34:40;;;;;;;39.50;24.35;;;17.70;99.90;;;;;;5250554;28;20371;-49
2022/04/14 19:37:10;;;;;;;41.72;25.55;;;18.00;99.90;;;;;;5269389;28;20024;-60
2022/04/14 19:39:44;;;;;;;32.47;23.17;;;18.30;99.90;;;;;;5265929;28;20467;-47
2022/04/14 19:42:15;;;;;;;44.53;26.92;;;18.70;99.90;;;;;;5250364;28;20357;-48
2022/04/14 19:44:46;;;;;;;41.20;23.20;;;19.10;99.90;;;;;;5251834;28;20020;-52
2022/04/14 19:47:16;;;;;;;38.90;25.17;;;19.40;99.90;;;;;;5275442;28;20039;-49
2022/04/14 19:49:47;;;;;;;39.17;24.50;;;19.80;99.90;;;;;;5270811;28;20496;-60
2022/04/14 19:52:18;;;;;;;38.35;26.13;;;19.90;99.90;;;;;;5270474;28;20028;-48
2022/04/14 19:54:50;;;;;;;35.28;26.77;;;20.00;99.90;;;;;;5270346;28;20016;-60
2022/04/14 19:57:21;;;;;;;35.53;23.85;;;20.20;99.90;;;;;;5270093;28;20040;-58
2022/04/14 19:59:52;;;;;;;33.90;23.27;;;20.30;99.90;;;;;;5270298;28;20017;-63
2022/04/14 20:02:23;;;;;;;31.45;22.02;;;20.30;99.90;;;;;;5255249;28;20056;-47
2022/04/14 20:04:54;;;;;;;28.65;20.63;;;20.40;99.90;;;;;;5250013;28;20110;-62
2022/04/14 20:07:24;;;;;;;31.42;22.48;;;20.70;99.90;;;;;;5249631;28;20036;-53
2022/04/14 20:09:55;;;;;;;32.25;20.52;;;20.90;99.90;;;;;;5250189;28;20028;-59
2022/04/14 20:12:27;;;;;;;27.33;18.02;;;21.10;99.90;;;;;;5277137;28;20020;-63
2022/04/14 20:15:00;;;;;;;28.45;19.02;;;21.30;98.50;;;;;;5269817;28;20158;-50
2022/04/14 20:17:31;;;;;;;20.20;16.02;;;21.40;97.10;;;;;;5269916;28;20474;-63
2022/04/14 20:20:04;;;;;;;22.85;16.08;;;21.50;96.30;;;;;;5269887;28;20093;-62
2022/04/14 20:22:36;;;;;;;19.75;14.65;;;21.50;95.80;;;;;;5270117;28;20019;-62
2022/04/14 20:25:07;;;;;;;18.75;14.02;;;21.60;95.30;;;;;;5269823;28;20039;-62
2022/04/14 20:27:38;;;;;;;21.95;13.77;;;21.70;94.60;;;;;;5269643;28;20495;-52
2022/04/14 20:30:10;;;;;;;17.25;13.32;;;21.80;93.70;;;;;;5269432;28;20032;-52
2022/04/14 20:32:41;;;;;;;17.02;11.35;;;21.90;92.80;;;;;;5270032;28;20077;-49
2022/04/14 20:35:12;;;;;;;14.77;11.15;;;21.90;92.50;;;;;;5270263;28;20028;-48
2022/04/14 20:37:43;;;;;;;16.92;11.57;;;22.00;92.40;;;;;;5270139;28;20024;-51
2022/04/14 20:40:14;;;;;;;14.73;10.57;;;21.90;91.20;;;;;;5270089;28;20024;-53
2022/04/14 20:42:46;;;;;;;14.48;10.07;;;22.30;90.10;;;;;;5270002;28;20408;-62
2022/04/14 20:45:17;;;;;;;16.48;9.77;;;22.60;88.80;;;;;;5270153;28;20028;-62
2022/04/14 20:47:47;;;;;;;13.50;9.50;;;22.60;88.00;;;;;;5269970;28;20047;-63
2022/04/14 20:50:18;;;;;;;15.40;9.10;;;22.80;87.90;;;;;;5269776;28;20034;-60
2022/04/14 20:52:50;;;;;;;11.40;8.25;;;22.70;87.50;;;;;;5269778;28;20479;-63
2022/04/14 20:55:21;;;;;;;10.90;8.32;;;22.60;87.20;;;;;;5269267;28;20020;-56
2022/04/14 20:57:51;;;;;;;10.07;7.22;;;22.60;87.50;;;;;;5269573;28;20044;-64
2022/04/14 21:00:22;;;;;;;11.68;7.82;;;22.50;87.20;;;;;;5274729;28;20020;-59
2022/04/14 21:02:53;;;;;;;10.10;7.85;;;22.40;88.30;;;;;;5270191;28;20544;-52
2022/04/14 21:05:24;;;;;;;12.90;7.80;;;22.30;88.10;;;;;;5269165;28;20020;-55
2022/04/14 21:07:55;;;;;;;12.63;6.88;;;22.40;88.30;;;;;;5268898;28;20074;-62
2022/04/14 21:10:26;;;;;;;9.02;7.05;;;22.30;88.80;;;;;;5268972;28;20020;-63
2022/04/14 21:12:57;;;;;;;11.07;7.10;;;22.30;88.00;;;;;;5268978;28;20109;-51